Time;durP1;ratioP1;P1;durP2;ratioP2;P2;SDS_P1;SDS_P2;PMS_P1;PMS_P2;Temp;Humidity;BMP_temperature;BMP_pressure;BME280_temperature;BME280_humidity;BME280_pressure;Samples;Min_cycle;Max_cycle;Signal;HPM_P1;HPM_P2
2023/08/24 00:02:06;;;;;;;4.95;4.20;;;19.70;99.90;;;19.69;100.00;97454.53;5032692;28;20029;-37
2023/08/24 00:04:33;;;;;;;7.68;4.35;;;19.60;99.90;;;19.65;100.00;97455.72;5034797;28;20031;-37
2023/08/24 00:06:59;;;;;;;7.88;5.05;;;19.60;99.90;;;19.61;100.00;97451.53;5036914;28;20052;-36
2023/08/24 00:09:25;;;;;;;6.65;5.18;;;19.60;99.90;;;19.53;100.00;97448.59;5036443;28;20460;-36
2023/08/24 00:11:52;;;;;;;6.03;5.03;;;19.50;99.90;;;19.45;100.00;97449.13;5036524;28;20033;-36
2023/08/24 00:14:18;;;;;;;6.22;4.50;;;19.50;99.90;;;19.48;100.00;97451.59;5042114;28;20067;-36
2023/08/24 00:16:44;;;;;;;8.20;4.53;;;19.40;99.90;;;19.49;100.00;97458.66;5035887;28;20116;-36
2023/08/24 00:19:10;;;;;;;5.65;4.68;;;19.40;99.90;;;19.35;100.00;97432.06;5038477;28;20175;-36
2023/08/24 00:21:35;;;;;;;7.20;5.07;;;19.40;99.90;;;19.44;100.00;97450.09;5038563;28;20033;-36
2023/08/24 00:24:01;;;;;;;9.85;5.40;;;19.40;99.90;;;19.42;100.00;97452.88;5041236;28;20079;-36
2023/08/24 00:26:27;;;;;;;6.70;5.13;;;19.40;99.90;;;19.41;100.00;97439.63;5042880;28;20032;-36
2023/08/24 00:28:52;;;;;;;6.97;5.32;;;19.30;99.90;;;19.39;100.00;97438.88;5040060;28;20025;-36
2023/08/24 00:31:18;;;;;;;7.40;5.72;;;19.30;99.90;;;19.34;100.00;97428.50;5038934;28;20033;-36
2023/08/24 00:33:44;;;;;;;7.63;5.25;;;19.30;99.90;;;19.37;100.00;97435.47;5040215;28;20989;-36
2023/08/24 00:36:10;;;;;;;6.47;4.88;;;19.40;99.90;;;19.35;100.00;97424.88;5039039;28;20024;-36
2023/08/24 00:38:36;;;;;;;6.95;4.88;;;19.30;99.90;;;19.34;100.00;97425.81;5042590;28;20068;-36
2023/08/24 00:41:02;;;;;;;8.10;5.70;;;19.30;99.90;;;19.34;100.00;97423.16;5037622;28;20056;-36
2023/08/24 00:43:28;;;;;;;8.68;5.25;;;19.30;99.90;;;19.22;100.00;97402.66;5039808;28;20028;-36
2023/08/24 00:46:00;;;;;;;7.53;5.72;;;19.30;99.90;;;19.27;100.00;97416.53;5036569;28;20029;-36
2023/08/24 00:48:28;;;;;;;7.22;5.00;;;19.20;99.90;;;19.25;100.00;97419.31;5038057;28;20175;-36
2023/08/24 00:50:55;;;;;;;6.72;5.65;;;19.20;99.90;;;19.23;100.00;97417.72;5039167;28;20512;-36
2023/08/24 00:53:25;;;;;;;7.75;5.13;;;19.20;99.90;;;19.21;100.00;97415.16;5040738;28;20086;-36
2023/08/24 00:55:51;;;;;;;7.82;5.32;;;19.20;99.90;;;19.20;100.00;97407.25;5034525;28;20120;-36
2023/08/24 00:58:17;;;;;;;6.25;4.68;;;19.10;99.90;;;19.21;100.00;97409.81;5039870;28;20040;-36
2023/08/24 01:00:43;;;;;;;11.10;5.43;;;19.10;99.90;;;19.15;100.00;97402.25;5040018;28;20032;-36
2023/08/24 01:03:09;;;;;;;6.72;5.63;;;19.10;99.90;;;19.17;100.00;97400.31;5037860;28;20511;-36
2023/08/24 01:05:35;;;;;;;6.30;5.10;;;19.20;99.90;;;19.17;100.00;97402.16;5039247;28;20040;-36
2023/08/24 01:08:00;;;;;;;5.65;4.78;;;19.20;99.90;;;19.16;100.00;97400.44;5035560;28;20033;-36
2023/08/24 01:10:34;;;;;;;5.97;4.57;;;19.10;99.90;;;19.16;100.00;97397.75;5033201;28;20097;-36
2023/08/24 01:13:08;;;;;;;5.35;4.75;;;19.10;99.90;;;19.16;100.00;97398.59;5033677;28;20523;-36
2023/08/24 01:15:48;;;;;;;6.18;4.43;;;19.10;99.90;;;19.16;100.00;97398.59;5037873;28;20033;-36
2023/08/24 01:18:16;;;;;;;5.40;4.70;;;19.10;99.90;;;19.15;100.00;97402.25;5036742;28;20040;-36
2023/08/24 01:20:43;;;;;;;6.40;4.68;;;19.10;99.90;;;19.14;100.00;97400.53;5038505;28;20075;-36
2023/08/24 01:23:22;;;;;;;7.75;4.95;;;19.10;99.90;;;19.13;100.00;97401.50;5041125;28;20739;-36
2023/08/24 01:26:14;;;;;;;7.85;5.07;;;19.10;99.90;;;19.08;100.00;97398.31;5039743;28;20033;-36
2023/08/24 01:28:43;;;;;;;7.60;5.10;;;19.10;99.90;;;19.02;100.00;97394.25;5036568;28;20174;-36
2023/08/24 01:31:09;;;;;;;6.35;5.03;;;19.00;99.90;;;19.00;100.00;97390.81;5036835;28;20053;-36
2023/08/24 01:33:35;;;;;;;5.80;4.82;;;18.90;99.90;;;18.96;100.00;97385.81;5030235;28;20048;-36
2023/08/24 01:36:01;;;;;;;7.47;4.90;;;18.90;99.90;;;18.93;100.00;97388.69;5042395;28;20037;-36
2023/08/24 01:38:27;;;;;;;10.85;4.78;;;18.90;99.90;;;18.92;100.00;97387.00;5037951;28;20238;-36
2023/08/24 01:41:16;;;;;;;5.53;4.53;;;18.90;99.90;;;18.91;100.00;97385.28;5035109;28;20095;-36
2023/08/24 01:43:46;;;;;;;6.28;4.80;;;18.80;99.90;;;18.89;100.00;97391.59;5050694;28;20021;-36
2023/08/24 01:46:15;;;;;;;5.57;4.90;;;18.80;99.90;;;18.85;100.00;97390.09;5036075;28;20240;-36
2023/08/24 01:48:43;;;;;;;7.05;4.70;;;18.80;99.90;;;18.78;100.00;97383.44;5038385;28;20116;-36
2023/08/24 01:51:10;;;;;;;6.90;5.22;;;18.80;99.90;;;18.83;100.00;97389.34;5038711;28;20033;-36
2023/08/24 01:53:36;;;;;;;5.75;4.53;;;18.80;99.90;;;18.84;100.00;97391.09;5040461;28;20055;-36
2023/08/24 01:56:11;;;;;;;8.45;4.75;;;18.80;99.90;;;18.83;100.00;97389.34;5037746;28;20032;-36
2023/08/24 01:58:37;;;;;;;6.10;4.72;;;18.80;99.90;;;18.82;100.00;97381.44;5037621;28;20044;-36
2023/08/24 02:01:05;;;;;;;5.25;4.65;;;18.80;99.90;;;18.81;100.00;97393.97;5033191;28;20025;-36
2023/08/24 02:03:30;;;;;;;7.20;4.95;;;18.80;99.90;;;18.78;100.00;97387.94;5040294;28;20032;-36
2023/08/24 02:05:56;;;;;;;5.35;4.75;;;18.80;99.90;;;18.74;100.00;97381.13;5037518;28;20029;-36
2023/08/24 02:08:22;;;;;;;5.65;4.65;;;18.70;99.90;;;18.74;100.00;97383.78;5036617;28;20059;-36
2023/08/24 02:10:48;;;;;;;6.60;4.80;;;18.80;99.90;;;18.73;100.00;97396.28;5033868;28;20124;-36
2023/08/24 02:13:14;;;;;;;6.05;4.72;;;18.70;99.90;;;18.67;100.00;97391.38;5040168;28;20370;-36
2023/08/24 02:15:39;;;;;;;5.20;4.70;;;18.70;99.90;;;18.54;100.00;97379.81;5033508;28;20729;-36
2023/08/24 02:18:06;;;;;;;5.95;4.88;;;18.60;99.90;;;18.59;100.00;97394.59;5027850;28;20040;-36
2023/08/24 02:20:38;;;;;;;5.10;4.38;;;18.60;99.90;;;18.56;100.00;97391.28;5032433;28;20647;-36
2023/08/24 02:23:05;;;;;;;6.90;5.22;;;18.50;99.90;;;18.53;100.00;97384.31;5036787;28;20053;-36
2023/08/24 02:25:31;;;;;;;6.22;5.05;;;18.50;99.90;;;18.50;100.00;97393.41;5034725;28;20477;-36
2023/08/24 02:27:57;;;;;;;8.05;5.40;;;18.50;99.90;;;18.50;100.00;97393.41;5033943;28;20397;-36
2023/08/24 02:30:22;;;;;;;6.80;5.22;;;18.50;99.90;;;18.50;100.00;97389.84;5033218;28;20473;-36
2023/08/24 02:32:49;;;;;;;6.75;5.18;;;18.40;99.90;;;18.51;100.00;97388.91;5034582;28;20036;-36
2023/08/24 02:35:14;;;;;;;6.03;5.10;;;18.50;99.90;;;18.49;100.00;97382.81;5034277;28;20025;-36
2023/08/24 02:37:40;;;;;;;7.15;5.30;;;18.50;99.90;;;18.49;100.00;97385.50;5036436;28;20025;-36
2023/08/24 02:40:09;;;;;;;6.10;4.97;;;18.50;99.90;;;18.47;100.00;97372.25;5033999;28;20034;-36
2023/08/24 02:42:34;;;;;;;6.53;4.70;;;18.50;99.90;;;18.59;100.00;97383.91;5033611;28;20029;-36
2023/08/24 02:45:00;;;;;;;5.70;4.70;;;18.60;99.90;;;18.63;100.00;97379.19;5037206;28;20026;-36
2023/08/24 02:47:26;;;;;;;5.60;4.57;;;18.60;99.90;;;18.62;100.00;97381.00;5032166;28;20024;-36
2023/08/24 02:49:52;;;;;;;6.38;5.10;;;18.60;99.90;;;18.63;100.00;97385.38;5031707;28;20029;-36
2023/08/24 02:52:17;;;;;;;6.25;5.10;;;18.60;99.90;;;18.62;100.00;97383.66;5037446;28;20025;-36
2023/08/24 02:54:43;;;;;;;6.15;4.97;;;18.60;99.90;;;18.56;100.00;97365.41;5034470;28;20064;-36
2023/08/24 02:57:09;;;;;;;9.82;5.05;;;18.60;99.90;;;18.61;100.00;97375.75;5038023;28;20033;-36
2023/08/24 02:59:35;;;;;;;6.63;5.63;;;18.60;99.90;;;18.60;100.00;97374.91;5035407;28;20116;-36
2023/08/24 03:02:00;;;;;;;7.13;4.97;;;18.60;99.90;;;18.61;100.00;97370.41;5033425;28;20037;-36
2023/08/24 03:04:26;;;;;;;7.15;4.80;;;18.60;99.90;;;18.60;100.00;97372.25;5035518;28;20033;-36
2023/08/24 03:06:52;;;;;;;5.28;4.63;;;18.60;99.90;;;18.51;100.00;97357.72;5036991;28;20033;-36
2023/08/24 03:09:18;;;;;;;7.28;5.15;;;18.60;99.90;;;18.57;100.00;97376.94;5033617;28;20480;-36
2023/08/24 03:11:43;;;;;;;7.65;5.40;;;18.60;99.90;;;18.54;100.00;97361.13;5031756;28;20029;-36
2023/08/24 03:14:09;;;;;;;8.30;5.32;;;18.50;99.90;;;18.50;100.00;97358.69;5040469;28;20040;-36
2023/08/24 03:16:37;;;;;;;6.15;4.97;;;18.50;99.90;;;18.48;100.00;97357.94;5032688;28;20512;-36
2023/08/24 03:19:03;;;;;;;7.85;5.63;;;18.40;99.90;;;18.42;100.00;97358.34;5038068;28;20038;-36
2023/08/24 03:21:28;;;;;;;6.57;5.53;;;18.40;99.90;;;18.40;100.00;97364.78;5035327;28;20028;-36
2023/08/24 03:23:54;;;;;;;7.57;5.25;;;18.40;99.90;;;18.38;100.00;97366.69;5050764;28;20032;-36
2023/08/24 03:26:22;;;;;;;8.90;5.07;;;18.40;99.90;;;18.36;100.00;97356.13;5037528;28;20017;-36
2023/08/24 03:28:48;;;;;;;6.28;5.53;;;18.40;99.90;;;18.30;100.00;97351.19;5036561;28;20266;-36
2023/08/24 03:31:14;;;;;;;6.68;5.43;;;18.30;99.90;;;18.29;100.00;97353.00;5035449;28;20700;-36
2023/08/24 03:33:40;;;;;;;6.57;5.32;;;18.30;99.90;;;18.29;100.00;97353.00;5036207;28;20036;-36
2023/08/24 03:36:06;;;;;;;9.30;6.03;;;18.30;99.90;;;18.25;100.00;97354.19;5034376;28;20037;-36
2023/08/24 03:38:31;;;;;;;7.75;5.82;;;18.30;99.90;;;18.27;100.00;97362.09;5034897;28;20163;-36
2023/08/24 03:41:03;;;;;;;11.77;5.70;;;18.30;99.90;;;18.28;100.00;97356.63;5032839;28;20098;-36
2023/08/24 03:43:34;;;;;;;8.82;5.60;;;18.30;99.90;;;18.29;100.00;97336.16;5031587;28;20486;-36
2023/08/24 03:46:01;;;;;;;10.55;6.43;;;18.30;99.90;;;18.28;100.00;97321.94;5035787;28;20508;-36
2023/08/24 03:48:27;;;;;;;7.03;5.93;;;18.30;99.90;;;18.31;100.00;97319.06;5033840;28;20037;-36
2023/08/24 03:50:57;;;;;;;7.88;5.97;;;18.40;99.90;;;18.40;100.00;97332.72;5033887;28;20124;-36
2023/08/24 03:53:24;;;;;;;7.53;6.43;;;18.40;99.90;;;18.44;100.00;97327.06;5033990;28;20037;-36
2023/08/24 03:55:52;;;;;;;7.15;5.80;;;18.40;99.90;;;18.49;100.00;97319.59;5027265;28;20029;-36
2023/08/24 03:58:18;;;;;;;7.70;5.63;;;18.50;99.90;;;18.57;100.00;97323.53;5035097;28;20025;-36
2023/08/24 04:00:44;;;;;;;9.43;5.72;;;18.60;99.90;;;18.61;100.00;97319.66;5031214;28;20105;-36
2023/08/24 04:03:10;;;;;;;8.02;5.95;;;18.60;99.90;;;18.68;100.00;97315.59;5034600;28;20601;-36
2023/08/24 04:05:36;;;;;;;7.28;6.03;;;18.70;99.90;;;18.69;100.00;97310.16;5039583;28;20078;-36
2023/08/24 04:08:02;;;;;;;8.52;6.47;;;18.70;99.90;;;18.76;100.00;97305.25;5029815;28;20025;-36
2023/08/24 04:10:29;;;;;;;10.68;6.40;;;18.80;99.90;;;18.71;100.00;97288.69;5034507;28;20097;-36
2023/08/24 04:12:55;;;;;;;7.75;6.70;;;18.80;99.90;;;18.85;100.00;97309.94;5039007;28;20029;-36
2023/08/24 04:15:22;;;;;;;9.00;6.50;;;18.90;99.90;;;18.88;100.00;97303.53;5038947;28;20365;-36
2023/08/24 04:17:48;;;;;;;9.27;6.95;;;18.90;99.90;;;18.92;100.00;97302.34;5032159;28;20424;-36
2023/08/24 04:20:14;;;;;;;7.40;6.57;;;18.90;99.90;;;18.95;100.00;97303.94;5036964;28;20031;-36
2023/08/24 04:22:40;;;;;;;9.35;6.72;;;18.90;99.90;;;18.93;100.00;97301.38;5035537;28;20082;-36
2023/08/24 04:25:06;;;;;;;9.48;7.00;;;19.00;99.90;;;19.01;100.00;97303.50;5032284;28;20033;-36
2023/08/24 04:27:32;;;;;;;8.35;6.72;;;19.00;99.90;;;18.96;100.00;97294.97;5035572;28;20025;-36
2023/08/24 04:29:58;;;;;;;8.60;7.07;;;19.00;99.90;;;19.04;100.00;97308.59;5036239;28;20492;-36
2023/08/24 04:32:24;;;;;;;9.20;6.70;;;19.00;99.90;;;19.03;100.00;97305.09;5036237;28;20474;-36
2023/08/24 04:34:50;;;;;;;7.90;6.95;;;19.00;99.90;;;19.03;100.00;97301.56;5033668;28;20063;-36
2023/08/24 04:37:16;;;;;;;11.05;7.28;;;19.00;99.90;;;19.03;100.00;97296.22;5034532;28;20401;-36
2023/08/24 04:39:41;;;;;;;9.98;6.88;;;19.00;99.90;;;18.99;100.00;97294.75;5032756;28;20083;-36
2023/08/24 04:42:07;;;;;;;9.30;7.43;;;19.00;99.90;;;18.94;100.00;97280.88;5028512;28;20028;-36
2023/08/24 04:44:33;;;;;;;7.55;6.78;;;18.90;99.90;;;18.89;100.00;97284.69;5027208;28;20485;-36
2023/08/24 04:46:59;;;;;;;11.88;7.25;;;18.90;99.90;;;18.84;100.00;97273.53;5027744;28;20029;-36
2023/08/24 04:49:24;;;;;;;9.95;7.30;;;18.80;99.90;;;18.79;100.00;97278.31;5036940;28;20508;-36
2023/08/24 04:51:50;;;;;;;9.45;7.13;;;18.80;99.90;;;18.74;100.00;97284.94;5028757;28;20064;-35
2023/08/24 04:54:17;;;;;;;10.23;7.22;;;18.70;99.90;;;18.69;100.00;97293.28;5035004;28;20108;-35
2023/08/24 04:56:42;;;;;;;9.13;6.82;;;18.70;99.90;;;18.67;100.00;97293.38;5037533;28;20400;-36
2023/08/24 04:59:08;;;;;;;8.18;6.45;;;18.70;99.90;;;18.65;100.00;97297.16;5035296;28;20497;-36
2023/08/24 05:01:34;;;;;;;7.63;6.43;;;18.60;99.90;;;18.67;100.00;97300.56;5034018;28;20051;-36
2023/08/24 05:04:00;;;;;;;9.15;6.38;;;18.70;99.90;;;18.68;100.00;97296.91;5033798;28;20049;-36
2023/08/24 05:06:26;;;;;;;7.93;6.47;;;18.70;99.90;;;18.80;100.00;97290.69;5035171;28;20520;-36
2023/08/24 05:08:51;;;;;;;8.35;6.90;;;18.80;99.90;;;18.82;100.00;97279.91;5034379;28;20036;-36
2023/08/24 05:11:21;;;;;;;8.90;7.18;;;18.90;99.90;;;18.99;100.00;97284.06;5034773;28;20409;-36
2023/08/24 05:13:47;;;;;;;7.18;6.40;;;19.00;99.90;;;19.08;100.00;97280.72;5037409;28;20128;-36
2023/08/24 05:16:13;;;;;;;8.30;6.80;;;19.10;99.90;;;19.19;100.00;97274.56;5033685;28;20501;-36
2023/08/24 05:18:39;;;;;;;7.18;6.43;;;19.10;99.90;;;19.26;100.00;97265.97;5034998;28;20032;-36
2023/08/24 05:21:06;;;;;;;9.77;7.05;;;19.20;99.90;;;19.26;100.00;97247.25;5039031;28;20029;-36
2023/08/24 05:23:35;;;;;;;8.35;6.88;;;19.30;99.90;;;19.45;100.00;97261.91;5035050;28;20083;-36
2023/08/24 05:26:02;;;;;;;9.68;7.07;;;19.40;99.90;;;19.56;100.00;97247.72;5036521;28;20029;-36
2023/08/24 05:28:29;;;;;;;9.20;6.45;;;19.50;99.90;;;19.69;100.00;97255.69;5029154;28;20608;-36
2023/08/24 05:30:56;;;;;;;10.98;7.28;;;19.60;99.90;;;19.82;100.00;97260.00;5036074;28;20029;-36
2023/08/24 05:33:23;;;;;;;8.38;6.70;;;19.80;99.90;;;19.96;100.00;97258.94;5035715;28;20029;-36
2023/08/24 05:35:50;;;;;;;9.38;6.80;;;19.90;99.90;;;20.10;100.00;97257.91;5043164;28;20040;-36
2023/08/24 05:38:16;;;;;;;9.57;6.43;;;20.10;99.90;;;20.22;100.00;97256.06;5039099;28;20037;-36
2023/08/24 05:40:43;;;;;;;9.73;6.57;;;20.20;99.90;;;20.29;100.00;97245.72;5038055;28;20025;-36
2023/08/24 05:43:10;;;;;;;9.60;6.40;;;20.30;99.90;;;20.37;100.00;97248.66;5032907;28;20029;-36
2023/08/24 05:45:36;;;;;;;8.18;5.90;;;20.40;99.90;;;20.40;100.00;97241.25;5035359;28;20552;-36
2023/08/24 05:48:03;;;;;;;6.50;5.47;;;20.40;99.90;;;20.51;100.00;97245.75;5037910;28;20086;-36
2023/08/24 05:50:28;;;;;;;6.53;5.55;;;20.50;99.90;;;20.60;100.00;97246.81;5039591;28;20029;-36
2023/08/24 05:52:54;;;;;;;7.40;5.40;;;20.60;99.90;;;20.72;100.00;97247.69;5038534;28;20091;-36
2023/08/24 05:55:20;;;;;;;8.38;5.22;;;20.70;99.90;;;20.81;100.00;97248.78;5042668;28;20364;-36
2023/08/24 05:57:46;;;;;;;9.02;5.20;;;20.80;99.90;;;20.93;100.00;97247.78;5044333;28;20107;-35
2023/08/24 06:00:12;;;;;;;5.72;5.05;;;20.90;99.90;;;21.04;100.00;97253.13;5038407;28;20032;-36
2023/08/24 06:02:39;;;;;;;6.57;5.00;;;21.00;99.90;;;21.14;100.00;97245.19;5034770;28;20072;-36
2023/08/24 06:05:07;;;;;;;6.43;5.15;;;21.10;99.90;;;21.22;100.00;97242.72;5028161;28;20487;-36
2023/08/24 06:07:33;;;;;;;6.03;4.78;;;21.20;99.90;;;21.38;100.00;97257.53;5035786;28;20062;-36
2023/08/24 06:09:59;;;;;;;5.38;4.60;;;21.30;99.90;;;21.50;100.00;97251.19;5036815;28;20496;-36
2023/08/24 06:12:25;;;;;;;9.38;5.53;;;21.50;99.90;;;21.65;100.00;97252.56;5038548;28;20029;-36
2023/08/24 06:14:51;;;;;;;8.05;5.95;;;21.60;99.90;;;21.82;100.00;97250.28;5028248;28;20033;-36
2023/08/24 06:17:16;;;;;;;7.72;5.03;;;21.80;99.90;;;21.95;100.00;97244.69;5034862;28;20028;-36
2023/08/24 06:19:42;;;;;;;8.80;5.53;;;21.90;99.90;;;22.11;100.00;97253.16;5036233;28;20075;-36
2023/08/24 06:22:08;;;;;;;7.70;4.85;;;22.00;99.90;;;22.25;100.00;97263.56;5036134;28;20021;-36
2023/08/24 06:24:35;;;;;;;7.80;4.75;;;22.20;99.90;;;22.34;100.00;97261.06;5030979;28;20076;-36
2023/08/24 06:27:00;;;;;;;6.57;4.47;;;22.30;99.90;;;22.48;100.00;97266.94;5034116;28;20037;-36
2023/08/24 06:29:30;;;;;;;7.28;4.63;;;22.40;99.90;;;22.61;100.00;97272.13;5035463;28;20542;-36
2023/08/24 06:31:56;;;;;;;5.85;4.55;;;22.50;99.90;;;22.66;100.00;97264.47;5040517;28;20087;-36
2023/08/24 06:34:22;;;;;;;8.13;4.88;;;22.60;99.90;;;22.78;100.00;97285.91;5030805;28;20141;-36
2023/08/24 06:36:50;;;;;;;8.43;4.70;;;22.70;99.90;;;22.82;100.00;97290.00;5031021;28;20068;-36
2023/08/24 06:39:15;;;;;;;6.57;4.63;;;22.70;99.90;;;22.69;100.00;97292.94;5027854;28;20036;-36
2023/08/24 06:41:41;;;;;;;9.07;4.60;;;22.70;99.90;;;22.60;100.00;97299.97;5038968;28;20180;-36
2023/08/24 06:44:07;;;;;;;8.00;4.68;;;22.50;99.90;;;22.49;100.00;97313.50;5031520;28;20086;-36
2023/08/24 06:46:33;;;;;;;5.95;4.72;;;22.40;99.90;;;22.35;100.00;97320.06;5033680;28;20052;-36
2023/08/24 06:48:58;;;;;;;8.10;4.93;;;22.30;99.90;;;22.07;100.00;97310.78;5037194;28;20033;-36
2023/08/24 06:51:26;;;;;;;10.40;5.55;;;22.10;99.90;;;22.01;100.00;97336.34;5040389;28;20480;-36
2023/08/24 06:53:51;;;;;;;7.72;5.22;;;22.00;99.90;;;21.86;100.00;97351.91;5040914;28;20018;-36
2023/08/24 06:56:18;;;;;;;8.18;5.63;;;21.90;99.90;;;21.78;100.00;97354.38;5036657;28;20559;-36
2023/08/24 06:58:45;;;;;;;5.90;5.00;;;21.70;99.90;;;21.70;100.00;97356.84;5035870;28;20024;-36
2023/08/24 07:01:11;;;;;;;5.95;4.68;;;21.70;99.90;;;21.72;100.00;97357.56;5034251;28;20100;-36
2023/08/24 07:03:37;;;;;;;5.50;4.80;;;21.70;99.90;;;21.76;100.00;97352.81;5037733;28;20397;-36
2023/08/24 07:06:06;;;;;;;5.07;4.57;;;21.70;99.90;;;21.86;100.00;97341.16;5031783;28;20108;-36
2023/08/24 07:08:31;;;;;;;7.18;5.28;;;21.80;99.90;;;21.94;100.00;97324.41;5036136;28;20033;-36
2023/08/24 07:10:57;;;;;;;8.40;5.70;;;21.90;99.90;;;22.11;100.00;97309.56;5031725;28;20033;-36
2023/08/24 07:13:23;;;;;;;8.27;6.15;;;22.10;99.90;;;22.30;100.00;97303.47;5036429;28;20024;-36
2023/08/24 07:15:49;;;;;;;9.32;5.68;;;22.20;99.90;;;22.52;100.00;97305.16;5036313;28;20048;-36
2023/08/24 07:18:15;;;;;;;9.75;6.03;;;22.50;99.90;;;22.71;100.00;97306.25;5033643;28;20057;-36
2023/08/24 07:20:41;;;;;;;7.70;5.97;;;22.70;99.90;;;22.88;100.00;97302.91;5041396;28;20530;-36
2023/08/24 07:23:06;;;;;;;8.27;6.35;;;22.80;99.90;;;22.96;100.00;97296.84;5033016;28;20033;-36
2023/08/24 07:25:32;;;;;;;7.63;5.63;;;22.90;99.90;;;23.09;100.00;97299.31;5039585;28;20032;-36
2023/08/24 07:27:58;;;;;;;6.80;5.18;;;23.00;99.90;;;23.19;100.00;97287.59;5035047;28;20033;-36
2023/08/24 07:30:26;;;;;;;6.75;5.35;;;23.10;99.90;;;23.36;100.00;97288.75;5037274;28;20029;-36
2023/08/24 07:32:55;;;;;;;7.65;4.97;;;23.30;99.90;;;23.40;100.00;97300.97;5027793;28;20084;-36
2023/08/24 07:35:24;;;;;;;5.63;4.90;;;23.30;99.90;;;23.34;100.00;97295.28;5038308;28;20025;-36
2023/08/24 07:37:53;;;;;;;11.45;5.55;;;23.20;99.90;;;23.13;100.00;97295.38;5033671;28;20039;-36
2023/08/24 07:40:19;;;;;;;7.03;5.70;;;23.10;99.90;;;23.11;100.00;97302.72;5033149;28;20453;-36
2023/08/24 07:42:47;;;;;;;10.30;5.60;;;22.90;99.90;;;23.17;100.00;97299.50;5036333;28;20029;-36
2023/08/24 07:45:16;;;;;;;6.82;5.10;;;23.00;99.90;;;23.32;100.00;97295.41;5031510;28;20501;-36
2023/08/24 07:47:43;;;;;;;6.78;4.68;;;23.10;99.90;;;23.44;100.00;97288.91;5030573;28;20029;-36
2023/08/24 07:50:10;;;;;;;9.75;5.32;;;23.20;99.90;;;23.53;100.00;97287.22;5034735;28;20052;-36
2023/08/24 07:52:38;;;;;;;6.95;5.80;;;23.30;99.90;;;23.62;100.00;97294.44;5036002;28;20040;-36
2023/08/24 07:55:08;;;;;;;6.55;5.45;;;23.40;99.90;;;23.68;100.00;97282.25;5036747;28;20035;-37
2023/08/24 07:57:34;;;;;;;6.85;5.35;;;23.50;99.90;;;23.87;100.00;97300.28;5029067;28;20039;-36
2023/08/24 08:00:01;;;;;;;9.75;5.57;;;23.60;99.90;;;24.00;96.75;97305.38;5027936;28;20037;-36
2023/08/24 08:02:26;;;;;;;8.13;5.88;;;23.80;99.90;;;23.96;95.34;97296.75;5032555;28;20509;-36
2023/08/24 08:04:58;;;;;;;15.00;6.13;;;23.80;99.90;;;24.05;93.90;97305.81;5030200;28;20037;-36
2023/08/24 08:07:24;;;;;;;7.88;5.38;;;23.80;99.90;;;24.13;95.21;97311.31;5029750;28;20028;-36
2023/08/24 08:09:50;;;;;;;13.88;5.50;;;23.90;99.90;;;24.23;94.24;97318.53;5025384;28;20037;-36
2023/08/24 08:12:16;;;;;;;8.73;5.20;;;24.00;99.90;;;24.21;92.39;97318.69;5024701;28;20120;-36
2023/08/24 08:14:42;;;;;;;6.07;4.90;;;24.00;99.90;;;24.20;85.00;97325.91;5035111;28;20021;-37
2023/08/24 08:17:07;;;;;;;12.40;5.38;;;24.10;99.90;;;24.28;89.26;97317.13;5036021;28;20120;-36
2023/08/24 08:19:35;;;;;;;7.03;4.80;;;24.10;99.90;;;24.40;86.12;97315.94;5024502;28;20033;-37
2023/08/24 08:22:01;;;;;;;6.28;4.68;;;24.20;99.90;;;24.52;82.18;97313.94;5024659;28;20087;-37
2023/08/24 08:24:27;;;;;;;5.63;4.22;;;24.30;99.90;;;24.59;83.56;97311.53;5027255;28;20029;-37
2023/08/24 08:26:53;;;;;;;9.40;4.78;;;24.40;99.90;;;24.62;79.16;97305.00;5033458;28;20029;-37
2023/08/24 08:29:18;;;;;;;7.50;4.70;;;24.50;99.90;;;24.65;80.10;97289.38;5033678;28;20044;-37
2023/08/24 08:31:44;;;;;;;6.43;4.50;;;24.50;99.90;;;24.79;79.31;97306.09;5040922;28;20465;-37
2023/08/24 08:34:09;;;;;;;7.97;5.10;;;24.60;99.90;;;24.86;81.55;97305.34;5040247;28;20118;-37
2023/08/24 08:36:35;;;;;;;10.18;4.28;;;24.70;99.90;;;24.91;80.51;97297.66;5041807;28;20401;-37
2023/08/24 08:39:03;;;;;;;5.47;4.30;;;24.70;99.90;;;25.05;80.47;97306.22;5039170;28;20040;-37
2023/08/24 08:41:36;;;;;;;6.40;4.55;;;24.80;99.90;;;25.09;80.16;97315.75;5029310;28;20035;-37
2023/08/24 08:44:06;;;;;;;5.95;4.32;;;24.90;99.90;;;25.14;80.39;97310.72;5038804;28;20017;-37
2023/08/24 08:46:32;;;;;;;6.45;4.57;;;24.90;99.90;;;25.15;80.23;97307.03;5038587;28;20086;-37
2023/08/24 08:49:00;;;;;;;6.72;4.47;;;24.90;99.90;;;25.21;79.49;97306.41;5030047;28;20037;-38
2023/08/24 08:51:28;;;;;;;7.40;4.60;;;25.00;99.90;;;25.25;75.97;97307.00;5036800;28;20036;-37
2023/08/24 08:53:54;;;;;;;11.05;4.75;;;25.00;99.90;;;25.20;75.37;97288.53;5039013;28;20063;-37
2023/08/24 08:56:21;;;;;;;6.00;4.95;;;25.10;99.90;;;25.41;75.95;97300.94;5041219;28;20033;-37
2023/08/24 08:58:49;;;;;;;5.43;4.20;;;25.20;99.90;;;25.49;76.18;97301.03;5041309;28;20120;-37
2023/08/24 09:01:15;;;;;;;7.70;4.45;;;25.20;99.90;;;25.55;74.83;97299.56;5023972;28;20037;-37
2023/08/24 09:03:44;;;;;;;6.30;3.70;;;25.30;99.90;;;25.65;76.11;97298.50;5039425;28;20079;-37
2023/08/24 09:06:09;;;;;;;6.20;4.35;;;25.40;99.90;;;25.70;71.63;97300.75;5033019;28;20436;-37
2023/08/24 09:08:36;;;;;;;8.15;4.22;;;25.50;99.90;;;25.80;71.94;97304.19;5034612;28;20041;-37
2023/08/24 09:11:03;;;;;;;6.85;4.57;;;25.60;99.90;;;25.86;72.96;97295.50;5030336;28;20216;-38
2023/08/24 09:13:29;;;;;;;7.40;4.28;;;25.70;99.90;;;25.96;72.13;97284.63;5038836;28;20040;-38
2023/08/24 09:16:04;;;;;;;5.63;4.10;;;25.70;99.90;;;26.05;72.67;97283.66;5031817;28;20102;-37
2023/08/24 09:18:38;;;;;;;6.40;4.28;;;25.80;99.90;;;26.15;68.90;97280.03;5032200;28;20040;-37
2023/08/24 09:21:13;;;;;;;6.53;4.03;;;25.90;99.90;;;26.26;69.56;97277.09;5029843;28;20320;-38
2023/08/24 09:23:57;;;;;;;8.90;4.78;;;26.00;99.90;;;26.32;69.05;97262.91;5036961;28;20500;-37
2023/08/24 09:26:37;;;;;;;10.00;4.55;;;26.10;99.90;;;26.45;68.97;97257.06;5037000;28;20037;-37
2023/08/24 09:29:14;;;;;;;6.55;4.95;;;26.30;99.90;;;26.49;65.44;97247.66;5028474;28;20028;-37
2023/08/24 09:31:43;;;;;;;8.32;4.75;;;26.30;99.90;;;26.55;65.67;97251.56;5049452;28;20079;-37
2023/08/24 09:34:09;;;;;;;6.65;4.80;;;26.40;99.90;;;26.58;63.79;97240.44;5032348;28;20041;-38
2023/08/24 09:36:36;;;;;;;8.45;5.20;;;26.40;99.90;;;26.66;65.80;97237.78;5026686;28;20307;-38
2023/08/24 09:39:06;;;;;;;5.88;4.40;;;26.40;99.90;;;26.72;62.77;97239.00;5031250;28;20040;-39
2023/08/24 09:41:43;;;;;;;7.00;4.72;;;26.40;99.90;;;26.71;63.31;97238.16;5038541;28;20106;-37
2023/08/24 09:44:10;;;;;;;6.05;4.68;;;26.50;99.90;;;26.82;63.21;97243.25;5037387;28;20026;-37
2023/08/24 09:46:39;;;;;;;6.00;4.10;;;26.60;99.90;;;26.72;64.52;97207.41;5036550;28;20029;-38
2023/08/24 09:49:06;;;;;;;5.53;4.05;;;26.60;99.90;;;26.95;64.41;97214.91;5040754;28;20029;-38
2023/08/24 09:51:37;;;;;;;5.28;4.05;;;26.80;99.90;;;27.05;61.49;97221.88;5035739;28;20083;-37
2023/08/24 09:54:10;;;;;;;6.88;4.63;;;26.80;99.90;;;27.09;65.36;97208.84;5037687;28;20120;-38
2023/08/24 09:56:41;;;;;;;10.15;4.97;;;26.90;99.90;;;27.09;63.30;97206.16;5040069;28;20037;-38
2023/08/24 09:59:18;;;;;;;5.15;4.30;;;26.90;99.90;;;27.11;62.11;97190.59;5033978;28;20055;-38
2023/08/24 10:01:47;;;;;;;6.88;4.70;;;26.90;99.90;;;27.07;62.00;97174.88;5035375;28;20536;-37
2023/08/24 10:04:24;;;;;;;5.20;4.32;;;26.90;99.90;;;27.13;63.98;97180.44;5037231;28;20478;-37
2023/08/24 10:07:00;;;;;;;6.90;5.00;;;26.90;99.90;;;27.17;66.24;97179.13;5039574;28;20029;-38
2023/08/24 10:09:38;;;;;;;7.80;5.45;;;27.00;99.90;;;27.21;63.95;97175.06;5036760;28;20625;-38
2023/08/24 10:12:06;;;;;;;5.95;5.25;;;27.00;99.90;;;27.26;64.27;97162.88;5029455;28;20143;-37
2023/08/24 10:14:44;;;;;;;7.53;5.10;;;27.00;99.90;;;27.37;63.53;97152.59;5035409;28;20182;-37